createdAt,value
2018-09-01T00:00:26.247Z,71.2
2018-09-01T00:02:24.235Z,70.8
2018-09-01T00:03:23.334Z,70.3
2018-09-01T00:04:22.984Z,70.1
2018-09-01T00:05:22.182Z,69.4
2018-09-01T00:06:21.388Z,70.3
2018-09-01T00:07:20.346Z,70.7
2018-09-01T00:08:19.528Z,71.4
2018-09-01T00:09:18.633Z,70.2
2018-09-01T00:10:18.342Z,71
2018-09-01T00:10:48.570Z,71
2018-09-01T00:12:16.572Z,69.4
2018-09-01T00:13:15.770Z,69.5
2018-09-01T00:14:14.981Z,71.1
2018-09-01T00:15:14.292Z,71.2
2018-09-01T00:16:13.601Z,71.7
2018-09-01T00:17:12.914Z,70.2
2018-09-01T00:18:11.624Z,70.7
2018-09-01T00:20:10.327Z,69.7
2018-09-01T00:20:40.849Z,69.7
2018-09-01T00:21:11.487Z,69.5
2018-09-01T00:22:08.786Z,69.5
2018-09-01T00:23:08.199Z,69.4
2018-09-01T00:24:07.407Z,69.4
2018-09-01T00:25:06.715Z,69.2
2018-09-01T00:26:05.929Z,69.3
2018-09-01T00:27:04.731Z,69.4
2018-09-01T00:28:04.044Z,69.4
2018-09-01T00:29:03.468Z,69.2
2018-09-01T00:30:02.675Z,69.3
2018-09-01T00:31:01.873Z,69.3
2018-09-01T00:32:01.181Z,69.4
2018-09-01T00:33:00.492Z,69.3
2018-09-01T00:33:59.702Z,69.7
2018-09-01T00:34:58.911Z,69.1
2018-09-01T00:35:57.903Z,69.3
2018-09-01T00:37:56.390Z,69.1
2018-09-01T00:38:55.704Z,68.9
2018-09-01T00:39:54.712Z,69.1
2018-09-01T00:41:53.415Z,69.1
2018-09-01T00:42:52.726Z,69.1
2018-09-01T00:43:51.936Z,69.2
2018-09-01T00:44:50.941Z,69.4
2018-09-01T00:45:50.248Z,69.1
2018-09-01T00:46:49.557Z,69.2
2018-09-01T00:47:48.466Z,69.3
2018-09-01T00:49:47.176Z,69.7
2018-09-01T00:50:46.484Z,69.4
2018-09-01T00:51:45.394Z,69.6
2018-09-01T00:52:44.600Z,69.6
2018-09-01T00:53:43.915Z,69.6
2018-09-01T00:54:43.229Z,69.9
2018-09-01T00:55:42.544Z,69.7
2018-09-01T00:56:41.640Z,69.7
2018-09-01T00:57:40.969Z,69.8
2018-09-01T00:58:40.175Z,69.9
2018-09-01T00:59:39.168Z,69.9
2018-09-01T01:00:38.484Z,69.9
2018-09-01T01:01:37.695Z,70
2018-09-01T01:02:37.056Z,70
2018-09-01T01:03:36.156Z,70.1
2018-09-01T01:04:35.464Z,70.2
2018-09-01T01:05:05.985Z,70.2
2018-09-01T01:05:36.231Z,70.2
2018-09-01T01:06:06.750Z,70.2
2018-09-01T01:06:37.381Z,70.2
2018-09-01T01:07:33.172Z,70.3
2018-09-01T01:08:32.597Z,70.4
2018-09-01T01:09:31.518Z,70.3
2018-09-01T01:10:30.825Z,70.4
2018-09-01T01:11:30.140Z,70.5
2018-09-01T01:12:29.576Z,70.6
2018-09-01T01:13:28.403Z,70.6
2018-09-01T01:14:27.714Z,70.7
2018-09-01T01:15:26.918Z,70.8
2018-09-01T01:15:57.536Z,70.8
2018-09-01T01:16:27.960Z,70.7
2018-09-01T01:17:25.555Z,70.8
2018-09-01T01:19:23.755Z,70.9
2018-09-01T01:20:23.185Z,71
2018-09-01T01:21:22.388Z,71.1
2018-09-01T01:22:21.705Z,71.1
2018-09-01T01:24:20.009Z,71.5
2018-09-01T01:25:19.216Z,71.4
2018-09-01T01:26:18.426Z,71.5
2018-09-01T01:27:17.632Z,71.4
2018-09-01T01:28:16.948Z,71.4
2018-09-01T01:29:16.365Z,71.5
2018-09-01T01:30:15.677Z,71.6
2018-09-01T01:31:14.879Z,71.8
2018-09-01T01:32:14.189Z,71.7
2018-09-01T01:33:12.991Z,71.8
2018-09-01T01:34:12.421Z,72.1
2018-09-01T01:35:11.781Z,72
2018-09-01T01:36:10.708Z,72
2018-09-01T01:37:10.173Z,72.1
2018-09-01T01:38:09.482Z,72.1
2018-09-01T01:39:08.792Z,72.1
2018-09-01T01:40:07.492Z,72.4
2018-09-01T01:41:06.956Z,72.3
2018-09-01T01:42:06.158Z,72.4
2018-09-01T01:43:05.263Z,72.5
2018-09-01T01:44:04.581Z,72.6
2018-09-01T01:44:35.106Z,72.6
2018-09-01T01:45:05.728Z,72.6
2018-09-01T01:45:35.957Z,72.6
2018-09-01T01:46:06.581Z,72.8
2018-09-01T01:46:37.098Z,72.8
2018-09-01T01:47:07.614Z,72.8
2018-09-01T01:47:38.130Z,72.8
2018-09-01T01:49:00.487Z,72.7
2018-09-01T01:50:00.090Z,72.8
2018-09-01T01:50:59.297Z,72.9
2018-09-01T01:51:58.413Z,73
2018-09-01T01:52:57.737Z,73
2018-09-01T01:53:57.160Z,73.1
2018-09-01T01:55:55.364Z,73.4
2018-09-01T01:56:54.679Z,73.4
2018-09-01T01:57:25.197Z,73.4
2018-09-01T01:57:55.339Z,73.5
2018-09-01T01:58:25.968Z,73.5
2018-09-01T01:58:56.497Z,73.7
2018-09-01T01:59:26.722Z,73.7
2018-09-01T02:00:51.602Z,73.6
2018-09-01T02:01:50.512Z,73.8
2018-09-01T02:02:50.128Z,73.7
2018-09-01T02:03:48.834Z,73.7
2018-09-01T02:04:48.542Z,74
2018-09-01T02:05:47.856Z,73.9
2018-09-01T02:06:46.723Z,73.9
2018-09-01T02:07:46.036Z,74
2018-09-01T02:08:45.234Z,74.1
2018-09-01T02:09:44.645Z,74.2
2018-09-01T02:10:43.968Z,74.3
2018-09-01T02:11:42.879Z,74.4
2018-09-01T02:12:42.090Z,74.5
2018-09-01T02:14:40.677Z,74.6
2018-09-01T02:16:39.003Z,74.8
2018-09-01T02:17:38.325Z,74.9
2018-09-01T02:18:37.190Z,74.7
2018-09-01T02:19:36.799Z,74.7
2018-09-01T02:20:36.006Z,74.8
2018-09-01T02:21:35.213Z,74.6
2018-09-01T02:22:34.533Z,74.4
2018-09-01T02:24:32.835Z,74.3
2018-09-01T02:25:32.038Z,74.3
2018-09-01T02:26:31.134Z,74.3
2018-09-01T02:28:29.838Z,74.3
2018-09-01T02:29:00.357Z,74.3
2018-09-01T02:29:31.093Z,74.4
2018-09-01T02:30:28.006Z,74.2
2018-09-01T02:31:27.217Z,74
2018-09-01T02:32:26.326Z,73.5
2018-09-01T02:33:25.650Z,73.7
2018-09-01T02:34:24.972Z,73.9
2018-09-01T02:35:24.309Z,74
2018-09-01T02:36:23.622Z,73.9
2018-09-01T02:37:22.543Z,73.9
2018-09-01T02:37:53.175Z,73.9
2018-09-01T02:38:23.800Z,73.8
2018-09-01T02:38:54.499Z,73.8
2018-09-01T02:39:25.135Z,73.9
2018-09-01T02:39:55.717Z,73.9
2018-09-01T02:40:26.345Z,74
2018-09-01T02:41:19.626Z,73.8
2018-09-01T02:42:18.841Z,74
2018-09-01T02:43:18.285Z,73.7
2018-09-01T02:44:17.230Z,73.8
2018-09-01T02:45:16.555Z,73.9
2018-09-01T02:46:15.888Z,74
2018-09-01T02:47:15.117Z,73.8
2018-09-01T02:48:13.945Z,74
2018-09-01T02:49:13.389Z,74.1
2018-09-01T02:50:12.349Z,74.3
2018-09-01T02:51:11.681Z,74.3
2018-09-01T02:52:11.025Z,74.3
2018-09-01T02:53:10.250Z,74.4
2018-09-01T02:54:09.476Z,74.5
2018-09-01T02:55:08.698Z,74.6
2018-09-01T02:56:07.726Z,74.6
2018-09-01T02:57:06.948Z,74.6
2018-09-01T02:58:06.277Z,74.6
2018-09-01T02:59:05.612Z,74.6
2018-09-01T03:00:04.840Z,74.6
2018-09-01T03:01:04.164Z,74.6
2018-09-01T03:02:02.880Z,74.7
2018-09-01T03:03:02.213Z,74.8
2018-09-01T03:04:01.544Z,74.8
2018-09-01T03:05:00.985Z,75.1
2018-09-01T03:06:00.010Z,75.1
2018-09-01T03:06:59.445Z,75.2
2018-09-01T03:07:58.280Z,75.3
2018-09-01T03:08:57.499Z,75.4
2018-09-01T03:09:56.823Z,75.6
2018-09-01T03:10:56.053Z,75.5
2018-09-01T03:11:55.389Z,75.6
2018-09-01T03:12:54.321Z,75.8
2018-09-01T03:13:53.543Z,75.9
2018-09-01T03:14:52.776Z,76
2018-09-01T03:15:52.217Z,75.8
2018-09-01T03:16:51.445Z,76
2018-09-01T03:17:50.782Z,76.1
2018-09-01T03:18:49.598Z,76.1
2018-09-01T03:19:48.953Z,76.3
2018-09-01T03:20:48.288Z,76.4
2018-09-01T03:21:47.520Z,76.5
2018-09-01T03:22:46.460Z,76.4
2018-09-01T03:23:16.711Z,76.4
2018-09-01T03:23:47.255Z,76.5
2018-09-01T03:24:17.796Z,76.5
2018-09-01T03:24:48.229Z,76.7
2018-09-01T03:25:18.874Z,76.7
2018-09-01T03:26:43.549Z,76.9
2018-09-01T03:27:42.772Z,77
2018-09-01T03:28:41.989Z,77
2018-09-01T03:29:40.928Z,77.2
2018-09-01T03:30:40.167Z,77.2
2018-09-01T03:31:39.623Z,77.3
2018-09-01T03:32:38.965Z,77.4
2018-09-01T03:33:09.400Z,77.4
2018-09-01T03:33:39.934Z,77.4
2018-09-01T03:34:10.583Z,77.4
2018-09-01T03:34:40.853Z,77.5
2018-09-01T03:35:11.388Z,77.5
2018-09-01T03:35:41.640Z,77.5
2018-09-01T03:36:12.178Z,77.5
2018-09-01T03:37:34.948Z,77.6
2018-09-01T03:38:33.886Z,77.5
2018-09-01T03:39:33.218Z,77.5
2018-09-01T03:40:32.551Z,77.6
2018-09-01T03:41:31.903Z,77.7
2018-09-01T03:42:30.730Z,77.7
2018-09-01T03:43:29.847Z,77.7
2018-09-01T03:44:29.086Z,77.9
2018-09-01T03:45:28.430Z,77.9
2018-09-01T03:46:27.762Z,77.9
2018-09-01T03:47:26.981Z,78
2018-09-01T03:48:26.116Z,78.1
2018-09-01T03:49:25.094Z,78.1
2018-09-01T03:50:24.607Z,78.2
2018-09-01T03:51:23.538Z,78.2
2018-09-01T03:52:22.966Z,78.3
2018-09-01T03:54:21.212Z,78.4
2018-09-01T03:55:20.661Z,78.4
2018-09-01T03:56:19.889Z,78.4
2018-09-01T03:58:18.104Z,78.6
2018-09-01T03:59:17.349Z,78.5
2018-09-01T04:00:16.700Z,78.6
2018-09-01T04:01:15.821Z,78.7
2018-09-01T04:03:14.036Z,78.8
2018-09-01T04:03:44.570Z,78.8
2018-09-01T04:04:15.117Z,78.9
2018-09-01T04:04:45.678Z,78.9
2018-09-01T04:05:15.817Z,78.9
2018-09-01T04:05:46.565Z,78.9
2018-09-01T04:06:17.205Z,79.1
2018-09-01T04:06:47.342Z,79.1
2018-09-01T04:08:10.221Z,79.2
2018-09-01T04:09:09.455Z,79.3
2018-09-01T04:10:08.680Z,79.4
2018-09-01T04:11:07.902Z,79.5
2018-09-01T04:12:07.233Z,79.4
2018-09-01T04:13:06.075Z,79.5
2018-09-01T04:13:36.621Z,79.5
2018-09-01T04:14:07.267Z,79.6
2018-09-01T04:14:37.846Z,79.6
2018-09-01T04:15:08.386Z,79.5
2018-09-01T04:15:38.537Z,79.5
2018-09-01T04:16:09.293Z,79.7
2018-09-01T04:16:39.928Z,79.7
2018-09-01T04:17:10.573Z,79.8
2018-09-01T04:17:41.215Z,79.8
2018-09-01T04:19:01.579Z,79.8
2018-09-01T04:20:00.913Z,79.9
2018-09-01T04:21:58.912Z,80.2
2018-09-01T04:22:58.249Z,80.3
2018-09-01T04:23:57.683Z,80.3
2018-09-01T04:24:56.513Z,80.5
2018-09-01T04:25:55.840Z,80.5
2018-09-01T04:26:55.301Z,80.6
2018-09-01T04:27:54.125Z,80.6
2018-09-01T04:28:53.566Z,80.5
2018-09-01T04:29:52.498Z,80.6
2018-09-01T04:30:51.940Z,80.6
2018-09-01T04:31:51.010Z,80.8
2018-09-01T04:32:50.438Z,80.6
2018-09-01T04:34:48.471Z,80.7
2018-09-01T04:35:47.610Z,80.7
2018-09-01T04:36:46.835Z,80.9
2018-09-01T04:37:46.170Z,81
2018-09-01T04:38:45.393Z,81.1
2018-09-01T04:39:44.618Z,81.2
2018-09-01T04:40:43.841Z,81.2
2018-09-01T04:41:43.173Z,81.3
2018-09-01T04:42:42.507Z,81.3
2018-09-01T04:43:41.448Z,81.3
2018-09-01T04:44:40.882Z,81.4
2018-09-01T04:45:40.003Z,81.3
2018-09-01T04:46:10.258Z,81.3
2018-09-01T04:46:40.505Z,81.3
2018-09-01T04:47:11.040Z,81.3
2018-09-01T04:48:37.356Z,81.3
2018-09-01T04:49:36.812Z,81.3
2018-09-01T04:50:35.837Z,81.2
2018-09-01T04:51:34.958Z,81.2
2018-09-01T04:52:34.192Z,81.3
2018-09-01T04:53:33.524Z,81.3
2018-09-01T04:54:32.644Z,81.3
2018-09-01T04:55:32.096Z,81.2
2018-09-01T04:56:31.041Z,81.2
2018-09-01T04:57:01.340Z,81.2
2018-09-01T04:57:31.884Z,81.2
2018-09-01T04:58:29.349Z,81.2
2018-09-01T04:59:28.576Z,81.2
2018-09-01T05:00:27.808Z,81.3
2018-09-01T05:01:27.431Z,81.3
2018-09-01T05:01:57.270Z,81.3
2018-09-01T05:02:27.816Z,81.3
2018-09-01T05:03:25.423Z,81.3
2018-09-01T05:04:24.544Z,81.3
2018-09-01T05:05:23.793Z,81.2
2018-09-01T05:07:22.026Z,81.2
2018-09-01T05:10:19.625Z,81.2
2018-09-01T05:11:18.849Z,81.2
2018-09-01T05:12:17.961Z,81.2
2018-09-01T05:13:17.185Z,81.2
2018-09-01T05:14:16.809Z,81.3
2018-09-01T05:15:15.755Z,81.4
2018-09-01T05:16:15.019Z,81.2
2018-09-01T05:18:13.143Z,81.3
2018-09-01T05:20:11.754Z,81.2
2018-09-01T05:21:11.314Z,81.2
2018-09-01T05:22:10.057Z,81.3
2018-09-01T05:23:09.177Z,81.3
2018-09-01T05:24:08.506Z,81.3
2018-09-01T05:25:07.945Z,81.4
2018-09-01T05:27:06.150Z,81.3
2018-09-01T05:28:05.375Z,81.3
2018-09-01T05:29:04.704Z,81.3
2018-09-01T05:31:02.929Z,81.2
2018-09-01T05:32:02.048Z,81.3
2018-09-01T05:33:01.371Z,81.4
2018-09-01T05:35:00.082Z,81.4
2018-09-01T05:37:57.693Z,81.2
2018-09-01T05:38:56.911Z,81.2
2018-09-01T05:39:55.735Z,81.2
2018-09-01T05:40:55.061Z,81.2
2018-09-01T05:41:25.492Z,81.2
2018-09-01T05:41:55.925Z,81.2
2018-09-01T05:42:26.580Z,81.2
2018-09-01T05:43:52.583Z,81.1
2018-09-01T05:44:52.029Z,81.1
2018-09-01T05:45:50.857Z,80.9
2018-09-01T05:46:50.102Z,80.8
2018-09-01T05:47:49.118Z,81
2018-09-01T05:48:48.341Z,80.9
2018-09-01T05:49:47.965Z,80.6
2018-09-01T05:50:47.121Z,80.5
2018-09-01T05:51:17.666Z,80.5
2018-09-01T05:52:45.581Z,80.6
2018-09-01T05:53:44.801Z,80.8
2018-09-01T05:54:44.027Z,80.7
2018-09-01T05:55:42.963Z,80.8
2018-09-01T05:56:42.196Z,80.8
2018-09-01T05:57:41.525Z,80.8
2018-09-01T05:58:40.858Z,80.7
2018-09-01T05:59:39.971Z,80.6
2018-09-01T06:00:39.105Z,80.7
2018-09-01T06:01:37.940Z,80.5
2018-09-01T06:02:37.554Z,80.6
2018-09-01T06:03:36.883Z,80.6
2018-09-01T06:04:35.719Z,80.6
2018-09-01T06:05:35.040Z,80.6
2018-09-01T06:06:34.169Z,80.8
2018-09-01T06:07:33.519Z,80.9
2018-09-01T06:08:32.458Z,80.7
2018-09-01T06:10:31.073Z,80.7
2018-09-01T06:11:30.080Z,80.7
2018-09-01T06:12:29.310Z,80.7
2018-09-01T06:13:28.531Z,80.8
2018-09-01T06:14:27.852Z,80.8
2018-09-01T06:15:27.093Z,80.9
2018-09-01T06:16:26.099Z,81.1
2018-09-01T06:17:25.279Z,81.1
2018-09-01T06:18:24.568Z,81.3
2018-09-01T06:19:24.107Z,81.4
2018-09-01T06:20:23.230Z,81.4
2018-09-01T06:21:22.454Z,81.4
2018-09-01T06:22:21.785Z,81.4
2018-09-01T06:22:52.322Z,81.4
2018-09-01T06:25:19.334Z,81.3
2018-09-01T06:26:18.555Z,81.3
2018-09-01T06:27:17.276Z,81.2
2018-09-01T06:28:16.704Z,81.2
2018-09-01T06:29:15.935Z,81
2018-09-01T06:33:12.715Z,81.2
2018-09-01T06:33:43.354Z,81.2
2018-09-01T06:35:11.156Z,81.4
2018-09-01T06:36:10.270Z,81.4
2018-09-01T06:37:09.388Z,81.5
2018-09-01T06:38:08.614Z,81.6
2018-09-01T06:39:07.943Z,81.6
2018-09-01T06:40:07.377Z,81.5
2018-09-01T06:41:06.202Z,81.5
2018-09-01T06:42:05.538Z,81.4
2018-09-01T06:43:04.985Z,81.4
2018-09-01T06:44:03.929Z,81.3
2018-09-01T06:45:03.156Z,81.2
2018-09-01T06:46:02.494Z,81.1
2018-09-01T06:47:01.717Z,81.1
2018-09-01T06:48:00.949Z,80.9
2018-09-01T06:49:59.055Z,80.6
2018-09-01T06:50:58.293Z,80.4
2018-09-01T06:51:57.519Z,80.2
2018-09-01T06:52:56.955Z,80.3
2018-09-01T06:53:56.286Z,80.3
2018-09-01T06:54:55.502Z,80.2
2018-09-01T06:55:54.431Z,80.1
2018-09-01T06:56:53.873Z,80.4
2018-09-01T06:57:52.806Z,80.1
2018-09-01T06:58:52.135Z,79.9
2018-09-01T06:59:51.469Z,80.1
2018-09-01T07:00:22.107Z,80.1
2018-09-01T07:00:52.650Z,80
2018-09-01T07:01:49.968Z,80.3
2018-09-01T07:02:49.204Z,79.9
2018-09-01T07:03:48.325Z,79.6
2018-09-01T07:04:47.557Z,79.5
2018-09-01T07:05:46.388Z,79.5
2018-09-01T07:06:46.009Z,79.4
2018-09-01T07:07:45.336Z,79.6
2018-09-01T07:08:44.600Z,79.4
2018-09-01T07:09:43.387Z,79.6
2018-09-01T07:10:42.828Z,79.6
2018-09-01T07:11:42.262Z,79.8
2018-09-01T07:12:41.094Z,79.4
2018-09-01T07:13:40.542Z,79.7
2018-09-01T07:14:39.926Z,79.4
2018-09-01T07:15:38.748Z,79.4
2018-09-01T07:16:38.262Z,79
2018-09-01T07:17:37.485Z,78.9
2018-09-01T07:18:36.607Z,78.8
2018-09-01T07:20:35.113Z,78.7
2018-09-01T07:22:33.615Z,78.6
2018-09-01T07:23:32.944Z,78.8
2018-09-01T07:24:31.772Z,78.6
2018-09-01T07:25:30.991Z,78.6
2018-09-01T07:26:30.327Z,78.5
2018-09-01T07:27:29.766Z,78.5
2018-09-01T07:28:28.609Z,78.4
2018-09-01T07:29:27.946Z,77.9
2018-09-01T07:30:27.737Z,78.1
2018-09-01T07:31:27.713Z,78.3
2018-09-01T07:32:25.854Z,78.3
2018-09-01T07:33:24.671Z,77.9
2018-09-01T07:34:24.188Z,77.7
2018-09-01T07:35:23.530Z,77.6
2018-09-01T07:36:22.468Z,77.7
2018-09-01T07:37:21.696Z,76.8
2018-09-01T07:38:20.925Z,76.7
2018-09-01T07:39:20.267Z,77
2018-09-01T07:40:19.590Z,77
2018-09-01T07:41:19.028Z,77.2
2018-09-01T07:42:18.249Z,76.8
2018-09-01T07:43:17.582Z,76.9
2018-09-01T07:44:16.802Z,76.9
2018-09-01T07:45:15.805Z,76.2
2018-09-01T07:46:15.239Z,76.1
2018-09-01T07:47:14.460Z,76
2018-09-01T07:48:13.283Z,75.9
2018-09-01T07:49:12.609Z,76.1
2018-09-01T07:50:12.016Z,76
2018-09-01T07:51:11.194Z,76.3
2018-09-01T07:52:10.412Z,76.1
2018-09-01T07:53:09.732Z,76.2
2018-09-01T07:53:40.473Z,76.2
2018-09-01T07:55:08.386Z,75.8
2018-09-01T07:56:07.987Z,75.3
2018-09-01T07:57:06.595Z,75.4
2018-09-01T07:58:05.970Z,75.4
2018-09-01T07:59:05.430Z,75.3
2018-09-01T07:59:36.085Z,75.3
2018-09-01T08:00:06.722Z,75.3
2018-09-01T08:00:37.264Z,75.3
2018-09-01T08:01:07.823Z,75.4
2018-09-01T08:02:03.139Z,75.5
2018-09-01T08:03:01.962Z,75.3
2018-09-01T08:04:01.585Z,75.9
2018-09-01T08:05:00.715Z,75.5
2018-09-01T08:05:59.940Z,75.4
2018-09-01T08:06:59.272Z,75.7
2018-09-01T08:07:58.493Z,75.7
2018-09-01T08:09:57.209Z,75
2018-09-01T08:10:27.449Z,75
2018-09-01T08:10:58.094Z,75
2018-09-01T08:11:28.341Z,75
2018-09-01T08:11:58.985Z,75.3
2018-09-01T08:12:29.644Z,75.3
2018-09-01T08:13:54.229Z,75.3
2018-09-01T08:14:53.411Z,75.3
2018-09-01T08:15:52.643Z,75.4
2018-09-01T08:16:52.079Z,75.6
2018-09-01T08:17:50.916Z,75.1
2018-09-01T08:18:50.248Z,75.2
2018-09-01T08:19:49.582Z,75.5
2018-09-01T08:20:49.023Z,75.5
2018-09-01T08:21:48.245Z,75.2
2018-09-01T08:22:47.574Z,75
2018-09-01T08:23:46.685Z,75
2018-09-01T08:24:46.021Z,74.9
2018-09-01T08:25:45.245Z,75
2018-09-01T08:26:44.575Z,74.8
2018-09-01T08:27:43.801Z,74.7
2018-09-01T08:28:43.139Z,74.3
2018-09-01T08:29:42.114Z,74.4
2018-09-01T08:30:41.444Z,74.9
2018-09-01T08:31:40.767Z,74.4
2018-09-01T08:32:39.995Z,74.6
2018-09-01T08:34:38.714Z,73.6
2018-09-01T08:35:37.722Z,73.8
2018-09-01T08:36:37.232Z,73.6
2018-09-01T08:37:36.452Z,73.3
2018-09-01T08:38:35.678Z,73.3
2018-09-01T08:39:35.016Z,72.9
2018-09-01T08:40:33.961Z,72.4
2018-09-01T08:41:33.409Z,72
2018-09-01T08:42:32.639Z,71.9
2018-09-01T08:43:31.768Z,72.4
2018-09-01T08:44:31.257Z,71.5
2018-09-01T08:45:30.691Z,71.1
2018-09-01T08:46:29.921Z,71.2
2018-09-01T08:47:29.367Z,71.4
2018-09-01T08:48:28.200Z,71
2018-09-01T08:49:27.810Z,71.3
2018-09-01T08:50:27.134Z,71
2018-09-01T08:51:26.065Z,70.6
2018-09-01T08:52:25.505Z,71.2
2018-09-01T08:53:24.832Z,70.8
2018-09-01T08:53:55.372Z,70.8
2018-09-01T08:55:23.381Z,70.6
2018-09-01T08:57:22.000Z,70.3
2018-09-01T08:58:21.222Z,69.9
2018-09-01T08:59:20.659Z,69.9
2018-09-01T09:00:19.779Z,69.7
2018-09-01T09:01:19.009Z,69.6
2018-09-01T09:02:18.125Z,69.3
2018-09-01T09:03:17.862Z,69.5
2018-09-01T09:04:17.088Z,69.5
2018-09-01T09:05:16.196Z,69.4
2018-09-01T09:06:15.527Z,69.7
2018-09-01T09:07:14.757Z,69.4
2018-09-01T09:08:13.989Z,69.7
2018-09-01T09:09:13.115Z,68.6
2018-09-01T09:10:12.551Z,68.4
2018-09-01T09:11:11.882Z,68.3
2018-09-01T09:12:11.102Z,68.2
2018-09-01T09:13:10.539Z,68.2
2018-09-01T09:14:09.874Z,67.6
2018-09-01T09:15:08.882Z,66.9
2018-09-01T09:16:08.329Z,66.8
2018-09-01T09:17:07.771Z,66.2
2018-09-01T09:18:07.100Z,64.5
2018-09-01T09:19:06.330Z,64.5
2018-09-01T09:20:05.562Z,64.5
2018-09-01T09:21:04.782Z,64.4
2018-09-01T09:22:03.906Z,63.7
2018-09-01T09:23:03.264Z,63.8
2018-09-01T09:24:02.600Z,63.4
2018-09-01T09:25:01.836Z,63
2018-09-01T09:26:01.175Z,61.6
2018-09-01T09:27:00.514Z,62
2018-09-01T09:27:59.848Z,62.1
2018-09-01T09:28:59.176Z,62.2
2018-09-01T09:29:58.501Z,62.4
2018-09-01T09:30:29.076Z,62.4
2018-09-01T09:30:59.512Z,62.4
2018-09-01T09:31:30.144Z,62.4
2018-09-01T09:32:00.479Z,62.4
2018-09-01T09:32:31.118Z,62.4
2018-09-01T09:33:01.656Z,61.8
2018-09-01T09:33:55.640Z,61.9
2018-09-01T09:34:54.966Z,61.9
2018-09-01T09:35:54.203Z,62.1
2018-09-01T09:36:53.814Z,62.4
2018-09-01T09:37:52.826Z,61.9
2018-09-01T09:38:52.151Z,61.3
2018-09-01T09:39:51.938Z,58.6
2018-09-01T09:40:50.772Z,58.2
2018-09-01T09:41:50.214Z,58.6
2018-09-01T09:42:49.687Z,58.8
2018-09-01T09:43:48.923Z,57.8
2018-09-01T09:44:48.162Z,55.9
2018-09-01T09:45:47.389Z,56.4
2018-09-01T09:46:46.733Z,56.1
2018-09-01T09:47:46.067Z,55
2018-09-01T09:48:45.290Z,56.5
2018-09-01T09:49:44.634Z,56
2018-09-01T09:50:44.071Z,54.2
2018-09-01T09:51:43.184Z,53
2018-09-01T09:52:42.513Z,53.2
2018-09-01T09:53:41.732Z,52.7
2018-09-01T09:54:41.360Z,52.8
2018-09-01T09:55:40.478Z,53.6
2018-09-01T09:56:40.208Z,53.4
2018-09-01T09:57:39.050Z,53.8
2018-09-01T09:58:38.666Z,52.8
2018-09-01T09:59:38.125Z,53.2
2018-09-01T10:00:37.451Z,53.6
2018-09-01T10:01:36.886Z,53.6
2018-09-01T10:02:36.019Z,53
2018-09-01T10:04:34.848Z,54.2
2018-09-01T10:05:34.360Z,54.5
2018-09-01T10:06:33.093Z,54.7
2018-09-01T10:07:32.716Z,55
2018-09-01T10:08:32.047Z,54.8
2018-09-01T10:09:31.274Z,54.9
2018-09-01T10:10:30.709Z,55.1
2018-09-01T10:11:29.941Z,55.3
2018-09-01T10:12:29.268Z,54.8
2018-09-01T10:12:59.906Z,54.8
2018-09-01T10:13:30.233Z,55.6
2018-09-01T10:14:00.978Z,55.6
2018-09-01T10:14:31.619Z,53
2018-09-01T10:15:27.035Z,52.7
2018-09-01T10:16:26.654Z,52.3
2018-09-01T10:17:26.009Z,52.1
2018-09-01T10:18:25.453Z,52.4
2018-09-01T10:19:24.287Z,52.4
2018-09-01T10:20:24.332Z,52.2
2018-09-01T10:21:23.435Z,52.4
2018-09-01T10:22:22.782Z,51.7
2018-09-01T10:23:21.616Z,51.9
2018-09-01T10:24:21.340Z,51.5
2018-09-01T10:25:20.669Z,51.2
2018-09-01T10:26:20.005Z,51.7
2018-09-01T10:27:19.127Z,51.5
2018-09-01T10:28:18.471Z,50.7
2018-09-01T10:29:17.578Z,49.7
2018-09-01T10:30:17.413Z,49.6
2018-09-01T10:31:16.746Z,50
2018-09-01T10:32:15.964Z,49.3
2018-09-01T10:32:46.503Z,49.3
2018-09-01T10:33:17.045Z,49
2018-09-01T10:33:47.686Z,49
2018-09-01T10:35:14.096Z,49.5
2018-09-01T10:36:13.059Z,48.6
2018-09-01T10:37:12.793Z,48.2
2018-09-01T10:38:12.016Z,48.7
2018-09-01T10:39:11.241Z,48.8
2018-09-01T10:40:10.647Z,51.1
2018-09-01T10:41:09.969Z,52.3
2018-09-01T10:42:09.082Z,52.6
2018-09-01T10:43:08.624Z,51.8
2018-09-01T10:44:07.973Z,48.7
2018-09-01T10:45:07.308Z,47.7
2018-09-01T10:46:06.532Z,47.5
2018-09-01T10:47:06.259Z,48.5
2018-09-01T10:48:05.694Z,48.9
2018-09-01T10:49:04.679Z,49.8
2018-09-01T10:50:03.903Z,50.2
2018-09-01T10:51:03.440Z,50.5
2018-09-01T10:52:02.934Z,51
2018-09-01T10:53:02.162Z,50.8
2018-09-01T10:54:01.388Z,51.4
2018-09-01T10:55:01.008Z,51.8
2018-09-01T10:56:00.131Z,50
2018-09-01T10:56:59.569Z,50
2018-09-01T10:57:58.784Z,49.2
2018-09-01T10:58:58.874Z,49.2
2018-09-01T10:59:57.804Z,49.3
2018-09-01T11:00:57.143Z,48.9
2018-09-01T11:01:56.580Z,49.6
2018-09-01T11:02:55.799Z,49.3
2018-09-01T11:03:55.128Z,49
2018-09-01T11:04:54.467Z,49.6
2018-09-01T11:05:53.797Z,48.9
2018-09-01T11:06:52.914Z,48.7
2018-09-01T11:07:52.857Z,49.6
2018-09-01T11:08:51.977Z,49.3
2018-09-01T11:09:22.523Z,49.3
2018-09-01T11:09:52.770Z,48.7
2018-09-01T11:10:23.480Z,48.7
2018-09-01T11:10:53.758Z,48.7
2018-09-01T11:11:24.027Z,48.7
2018-09-01T11:11:54.377Z,49
2018-09-01T11:12:49.172Z,49.1
2018-09-01T11:13:48.527Z,49.4
2018-09-01T11:14:48.291Z,49.2
2018-09-01T11:15:47.625Z,48.6
2018-09-01T11:16:46.525Z,49.2
2018-09-01T11:17:46.413Z,48.9
2018-09-01T11:18:45.472Z,48.9
2018-09-01T11:19:44.799Z,48.3
2018-09-01T11:20:44.549Z,48.7
2018-09-01T11:21:43.857Z,48.1
2018-09-01T11:22:43.081Z,48.9
2018-09-01T11:23:42.437Z,48.5
2018-09-01T11:24:41.767Z,48.5
2018-09-01T11:25:41.093Z,47.9
2018-09-01T11:26:40.716Z,48.1
2018-09-01T11:27:40.202Z,48.5
2018-09-01T11:28:39.181Z,49.3
2018-09-01T11:29:38.522Z,49
2018-09-01T11:30:38.250Z,47.8
2018-09-01T11:32:36.861Z,48.3
2018-09-01T11:33:36.203Z,49.8
2018-09-01T11:34:35.588Z,50.5
2018-09-01T11:35:35.074Z,50.2
2018-09-01T11:36:34.504Z,48.5
2018-09-01T11:38:32.800Z,49.4
2018-09-01T11:39:32.541Z,47.9
2018-09-01T11:40:31.877Z,47.9
2018-09-01T11:41:31.309Z,47.2
2018-09-01T11:42:30.251Z,47.6
2018-09-01T11:43:30.000Z,48.4
2018-09-01T11:44:29.353Z,48.9
2018-09-01T11:45:28.587Z,48.1
2018-09-01T11:46:27.712Z,48.4
2018-09-01T11:47:27.447Z,48.5
2018-09-01T11:48:26.824Z,48.9
2018-09-01T11:49:26.375Z,49.3
2018-09-01T11:50:25.611Z,49.6
2018-09-01T11:51:25.044Z,50.9
2018-09-01T11:52:24.379Z,48.8
2018-09-01T11:53:24.013Z,49.1
2018-09-01T11:53:53.902Z,49.1
2018-09-01T11:54:24.482Z,49.4
2018-09-01T11:55:22.327Z,51.1
2018-09-01T11:56:21.663Z,49.3
2018-09-01T11:57:21.007Z,49.2
2018-09-01T11:58:20.340Z,49.1
2018-09-01T11:59:20.061Z,49.6
2018-09-01T12:00:19.390Z,50
2018-09-01T12:01:18.725Z,51
2018-09-01T12:02:17.917Z,50
2018-09-01T12:03:17.385Z,50.4
2018-09-01T12:04:16.612Z,50.3
2018-09-01T12:05:15.942Z,50.5
2018-09-01T12:06:15.677Z,50.2
2018-09-01T12:07:14.914Z,48.3
2018-09-01T12:08:14.138Z,48
2018-09-01T12:09:13.885Z,48.3
2018-09-01T12:10:12.991Z,48.3
2018-09-01T12:11:12.442Z,48.6
2018-09-01T12:11:42.766Z,48.6
2018-09-01T12:12:13.305Z,48.2
2018-09-01T12:12:43.840Z,48.2
2018-09-01T12:14:10.637Z,49.2
2018-09-01T12:15:10.081Z,48.5
2018-09-01T12:16:09.337Z,48.6
2018-09-01T12:17:08.559Z,49
2018-09-01T12:18:08.074Z,48.7
2018-09-01T12:19:07.398Z,48.9
2018-09-01T12:20:06.843Z,49
2018-09-01T12:21:06.175Z,49.2
2018-09-01T12:23:04.893Z,51.7
2018-09-01T12:24:04.225Z,50.4
2018-09-01T12:25:03.454Z,50.5
2018-09-01T12:27:02.462Z,49.9
2018-09-01T12:28:01.908Z,50.4
2018-09-01T12:29:01.316Z,49.7
2018-09-01T12:30:00.434Z,49.8
2018-09-01T12:31:00.060Z,49.2
2018-09-01T12:31:59.493Z,49.5
2018-09-01T12:32:58.932Z,49.6
2018-09-01T12:33:58.150Z,49.6
2018-09-01T12:34:57.488Z,50
2018-09-01T12:35:57.106Z,49.7
2018-09-01T12:36:56.325Z,50
2018-09-01T12:37:55.545Z,48.8
2018-09-01T12:38:54.878Z,49.3
2018-09-01T12:39:54.368Z,48.9
2018-09-01T12:40:53.599Z,49.5
2018-09-01T12:41:53.559Z,49.2
2018-09-01T12:42:52.695Z,48.4
2018-09-01T12:43:52.020Z,48.5
2018-09-01T12:44:51.460Z,48.4
2018-09-01T12:45:50.902Z,48.7
2018-09-01T12:46:50.128Z,48.8
2018-09-01T12:47:49.456Z,48.1
2018-09-01T12:48:48.682Z,48.7
2018-09-01T12:49:48.122Z,48.2
2018-09-01T12:50:47.451Z,48.5
2018-09-01T12:51:46.780Z,48.5
2018-09-01T12:52:46.624Z,48.9
2018-09-01T12:53:45.846Z,49.1
2018-09-01T12:54:45.072Z,48.5
2018-09-01T12:56:43.683Z,49.4
2018-09-01T12:57:43.297Z,49.5
2018-09-01T12:58:42.635Z,48.8
2018-09-01T12:59:42.073Z,49
2018-09-01T13:00:41.695Z,49.6
2018-09-01T13:01:40.753Z,49.8
2018-09-01T13:02:40.077Z,49.9
2018-09-01T13:03:39.409Z,49.7
2018-09-01T13:04:38.846Z,49.6
2018-09-01T13:05:38.173Z,47.8
2018-09-01T13:06:37.516Z,49.4
2018-09-01T13:07:36.963Z,49.5
2018-09-01T13:08:36.583Z,49.4
2018-09-01T13:09:35.913Z,49.7
2018-09-01T13:10:35.132Z,50.5
2018-09-01T13:11:34.454Z,50.9